Time;durP1;ratioP1;P1;durP2;ratioP2;P2;SDS_P1;SDS_P2;PMS_P1;PMS_P2;Temp;Humidity;BMP_temperature;BMP_pressure;BME280_temperature;BME280_humidity;BME280_pressure;Samples;Min_cycle;Max_cycle;Signal;HPM_P1;HPM_P2
2022/12/19 00:01:15;;;;;;;0.00;0.00;;;;;;;10.56;100.00;99413.00;5050656;28;20023;-78
2022/12/19 00:03:49;;;;;;;0.00;0.00;;;;;;;10.50;100.00;99386.84;5060584;28;20079;-80
2022/12/19 00:06:19;;;;;;;0.00;0.00;;;;;;;10.62;100.00;99409.09;5065409;28;20028;-80
2022/12/19 00:08:48;;;;;;;0.00;0.00;;;;;;;10.59;100.00;99406.94;5042535;28;20112;-82
2022/12/19 00:11:15;;;;;;;0.00;0.00;;;;;;;10.69;100.00;99410.66;5059847;28;20035;-80
2022/12/19 00:13:41;;;;;;;0.00;0.00;;;;;;;10.70;100.00;99415.03;5059043;28;20024;-80
2022/12/19 00:16:28;;;;;;;0.00;0.00;;;;;;;10.62;100.00;99394.63;5090401;28;20032;-80
2022/12/19 00:18:55;;;;;;;0.00;0.00;;;;;;;10.65;100.00;99404.97;5068912;28;20031;-77
2022/12/19 00:21:26;;;;;;;0.00;0.00;;;;;;;10.65;100.00;99389.38;5086575;28;20059;-79
2022/12/19 00:23:52;;;;;;;0.00;0.00;;;;;;;10.68;100.00;99403.56;5068754;28;20032;-77
2022/12/19 00:26:18;;;;;;;0.00;0.00;;;;;;;10.78;100.00;99404.25;5071454;28;20035;-79
2022/12/19 00:28:49;;;;;;;0.00;0.00;;;;;;;10.76;100.00;99394.72;5081153;28;20035;-78
2022/12/19 00:31:17;;;;;;;0.00;0.00;;;;;;;10.73;100.00;99393.41;5069995;28;20059;-78
2022/12/19 00:33:50;;;;;;;0.00;0.00;;;;;;;10.78;100.00;99403.44;5064753;28;20104;-77
2022/12/19 00:36:18;;;;;;;0.00;0.00;;;;;;;10.85;100.00;99401.19;5065307;28;20048;-76
2022/12/19 00:38:45;;;;;;;0.00;0.00;;;;;;;10.82;100.00;99418.19;5081269;28;20024;-79
2022/12/19 00:41:16;;;;;;;0.00;0.00;;;;;;;10.89;100.00;99420.53;5063717;28;20032;-76
2022/12/19 00:43:45;;;;;;;0.00;0.00;;;;;;;10.84;100.00;99385.88;5064622;28;20036;-78
2022/12/19 00:46:16;;;;;;;0.00;0.00;;;;;;;10.85;100.00;99392.13;5060971;28;20036;-78
2022/12/19 00:48:42;;;;;;;0.00;0.00;;;;;;;10.85;100.00;99387.50;5070849;28;20111;-79
2022/12/19 00:51:22;;;;;;;0.00;0.00;;;;;;;10.79;100.00;99399.59;5055988;28;20120;-79
2022/12/19 00:53:49;;;;;;;0.00;0.00;;;;;;;10.84;100.00;99424.16;5068028;28;20700;-76
2022/12/19 00:56:19;;;;;;;0.00;0.00;;;;;;;10.98;100.00;99388.69;5068783;28;20063;-78
2022/12/19 00:58:45;;;;;;;0.00;0.00;;;;;;;10.90;100.00;99368.28;5067007;28;20111;-77
2022/12/19 01:01:25;;;;;;;;;;;;;;;;;;;;;
2022/12/19 01:03:50;;;;;;;0.00;0.00;;;;;;;10.95;100.00;99387.38;5078422;28;20016;-76
2022/12/19 01:06:16;;;;;;;0.00;0.00;;;;;;;10.93;100.00;99378.63;5031088;28;20028;-75
2022/12/19 01:08:42;;;;;;;0.00;0.00;;;;;;;10.96;100.00;99378.03;5037723;28;20025;-77
2022/12/19 01:11:08;;;;;;;0.00;0.00;;;;;;;11.03;100.00;99396.03;5041554;28;20842;-78
2022/12/19 01:13:36;;;;;;;0.00;0.00;;;;;;;11.01;100.00;99423.69;5089502;28;20031;-75
2022/12/19 01:16:04;;;;;;;0.00;0.00;;;;;;;11.10;100.00;99393.75;5066651;28;20074;-78
2022/12/19 01:18:32;;;;;;;0.00;0.00;;;;;;;11.04;100.00;99383.97;5064535;28;20386;-77
2022/12/19 01:21:14;;;;;;;0.00;0.00;;;;;;;11.12;100.00;99397.00;5061009;28;20027;-78
2022/12/19 01:23:42;;;;;;;0.03;0.03;;;;;;;11.00;100.00;99387.28;5079063;28;20099;-78
2022/12/19 01:26:07;;;;;;;0.00;0.00;;;;;;;11.03;100.00;99379.63;5060930;28;20020;-76
2022/12/19 01:28:33;;;;;;;0.00;0.00;;;;;;;11.03;100.00;99388.63;5062259;28;20024;-77
2022/12/19 01:30:58;;;;;;;0.00;0.00;;;;;;;11.10;100.00;99389.09;5069414;28;20075;-78
2022/12/19 01:33:24;;;;;;;0.00;0.00;;;;;;;11.12;100.00;99397.00;5048189;28;20032;-78
2022/12/19 01:35:49;;;;;;;0.00;0.00;;;;;;;11.12;100.00;99399.72;5056768;28;20474;-77
2022/12/19 01:38:19;;;;;;;0.00;0.00;;;;;;;11.03;100.00;99387.81;5057289;28;20028;-79
2022/12/19 01:40:50;;;;;;;0.00;0.00;;;;;;;11.03;100.00;99394.09;5065638;28;20028;-79
2022/12/19 01:43:16;;;;;;;0.00;0.00;;;;;;;11.12;100.00;99405.19;5068449;28;20067;-80
2022/12/19 01:45:42;;;;;;;0.00;0.00;;;;;;;11.03;100.00;99398.78;5075683;28;20016;-79
2022/12/19 01:48:17;;;;;;;0.00;0.00;;;;;;;11.17;100.00;99421.56;5032701;28;20035;-77
2022/12/19 01:51:00;;;;;;;0.00;0.00;;;;;;;11.10;100.00;99404.69;5070587;28;20572;-76
2022/12/19 01:53:32;;;;;;;0.00;0.00;;;;;;;11.07;100.00;99391.56;5050165;28;20375;-78
2022/12/19 01:55:59;;;;;;;0.05;0.05;;;;;;;11.10;100.00;99383.59;5069313;28;20022;-79
2022/12/19 01:58:24;;;;;;;0.00;0.00;;;;;;;11.23;100.00;99398.47;5070009;28;20039;-77
2022/12/19 02:00:50;;;;;;;0.00;0.00;;;;;;;11.20;100.00;99393.59;5068166;28;20025;-78
2022/12/19 02:03:36;;;;;;;0.00;0.00;;;;;;;11.18;100.00;99391.16;5047072;28;20024;-79
2022/12/19 02:06:04;;;;;;;0.00;0.00;;;;;;;11.24;100.00;99391.88;5067303;28;20016;-80
2022/12/19 02:08:30;;;;;;;0.00;0.00;;;;;;;11.24;100.00;99389.16;5061349;28;20017;-79
2022/12/19 02:11:27;;;;;;;0.00;0.00;;;;;;;11.12;100.00;99375.09;5032415;28;20051;-78
2022/12/19 02:13:51;;;;;;;0.00;0.00;;;;;;;11.18;100.00;99428.63;5054654;28;20051;-78
2022/12/19 02:16:43;;;;;;;0.00;0.00;;;;;;;11.24;100.00;99411.03;5059778;28;20389;-78
2022/12/19 02:19:08;;;;;;;0.00;0.00;;;;;;;11.26;100.00;99430.72;5060725;28;20031;-79
2022/12/19 02:21:51;;;;;;;0.00;0.00;;;;;;;11.23;100.00;99409.44;5082761;28;20462;-78
2022/12/19 02:25:05;;;;;;;0.00;0.00;;;;;;;11.30;100.00;99414.53;5059793;28;20032;-78
2022/12/19 02:27:58;;;;;;;0.00;0.00;;;;;;;11.32;100.00;99385.75;5033585;28;20037;-77
2022/12/19 02:30:55;;;;;;;;;;;;;;;;;;;;;
2022/12/19 02:33:21;;;;;;;0.00;0.00;;;;;;;11.33;100.00;99413.91;5082996;28;20812;-79
2022/12/19 02:35:58;;;;;;;0.00;0.00;;;;;;;11.25;100.00;99399.00;5088107;28;20131;-78
2022/12/19 02:38:43;;;;;;;0.00;0.00;;;;;;;11.21;100.00;99388.94;5068783;28;20024;-80
2022/12/19 02:41:41;;;;;;;0.00;0.00;;;;;;;11.23;100.00;99398.47;5069701;28;20366;-78
2022/12/19 02:44:23;;;;;;;;;;;;;;;;;;;;;
2022/12/19 02:46:52;;;;;;;0.00;0.00;;;;;;;11.27;100.00;99412.38;5085776;28;20032;-77
2022/12/19 02:49:20;;;;;;;0.00;0.00;;;;;;;11.29;100.00;99408.25;5067711;28;20470;-77
2022/12/19 02:51:48;;;;;;;0.00;0.00;;;;;;;11.29;100.00;99418.38;5047375;28;20467;-77
2022/12/19 02:54:14;;;;;;;0.00;0.00;;;;;;;11.35;100.00;99390.63;5060604;28;20028;-76
2022/12/19 02:57:14;;;;;;;0.00;0.00;;;;;;;11.20;100.00;99385.41;5062570;28;20036;-77
2022/12/19 02:59:53;;;;;;;0.00;0.00;;;;;;;11.32;100.00;99409.59;5067985;28;20024;-78
2022/12/19 03:02:31;;;;;;;0.00;0.00;;;;;;;11.29;100.00;99394.56;5070894;28;20034;-78
2022/12/19 03:05:05;;;;;;;0.00;0.00;;;;;;;11.29;100.00;99415.66;5053629;28;20020;-78
2022/12/19 03:08:01;;;;;;;0.00;0.00;;;;;;;11.27;100.00;99420.59;5072484;28;20530;-76
2022/12/19 03:10:51;;;;;;;0.00;0.00;;;;;;;11.16;100.00;99419.94;5069923;28;20028;-78
2022/12/19 03:13:28;;;;;;;0.00;0.00;;;;;;;11.16;100.00;99437.16;5061635;28;20020;-77
2022/12/19 03:15:54;;;;;;;0.00;0.00;;;;;;;11.04;100.00;99411.31;5063932;28;20035;-78
2022/12/19 03:18:19;;;;;;;0.00;0.00;;;;;;;11.04;100.00;99408.59;5060326;28;20473;-77
2022/12/19 03:21:03;;;;;;;0.00;0.00;;;;;;;11.12;100.00;99446.25;5080081;28;20024;-77
2022/12/19 03:23:30;;;;;;;0.00;0.00;;;;;;;11.10;100.00;99418.38;5065317;28;20021;-77
2022/12/19 03:26:10;;;;;;;0.00;0.00;;;;;;;10.99;100.00;99402.09;5052046;28;20060;-78
2022/12/19 03:28:46;;;;;;;0.00;0.00;;;;;;;11.05;100.00;99429.38;5067328;28;20086;-77
2022/12/19 03:31:14;;;;;;;0.00;0.00;;;;;;;11.06;100.00;99414.59;5069354;28;20131;-78
2022/12/19 03:33:45;;;;;;;0.00;0.00;;;;;;;11.07;100.00;99402.53;5065432;28;20466;-79
2022/12/19 03:36:20;;;;;;;0.00;0.00;;;;;;;11.08;100.00;99409.63;5085316;28;20044;-79
2022/12/19 03:38:49;;;;;;;0.00;0.00;;;;;;;10.99;100.00;99409.47;5066538;28;20077;-78
2022/12/19 03:43:07;;;;;;;0.00;0.00;;;;;;;10.96;100.00;99391.72;5071018;28;20016;-77
2022/12/19 03:44:10;;;;;;;0.00;0.00;;;;;;;10.97;100.00;99396.09;5079815;28;20505;-77
2022/12/19 03:46:46;;;;;;;0.00;0.00;;;;;;;11.04;100.00;99394.91;5082063;28;20063;-77
2022/12/19 03:49:12;;;;;;;0.00;0.00;;;;;;;11.00;100.00;99400.97;5059947;28;20024;-78
2022/12/19 03:51:37;;;;;;;0.00;0.00;;;;;;;11.14;100.00;99416.66;5053336;28;20051;-77
2022/12/19 03:54:15;;;;;;;0.00;0.00;;;;;;;11.12;100.00;99418.88;5067040;28;20059;-77
2022/12/19 03:56:56;;;;;;;0.00;0.00;;;;;;;11.05;100.00;99391.06;5067042;28;20474;-77
2022/12/19 03:59:29;;;;;;;0.00;0.00;;;;;;;11.04;100.00;99405.84;5064866;28;20020;-76
2022/12/19 04:01:59;;;;;;;0.00;0.00;;;;;;;11.05;100.00;99408.28;5070288;28;20022;-77
2022/12/19 04:04:29;;;;;;;0.00;0.00;;;;;;;11.16;100.00;99458.22;5064128;28;20385;-78
2022/12/19 04:06:56;;;;;;;0.00;0.00;;;;;;;10.94;100.00;99391.22;5088069;28;20034;-79
2022/12/19 04:09:24;;;;;;;0.00;0.00;;;;;;;11.13;100.00;99415.03;5068830;28;20028;-79
2022/12/19 04:12:02;;;;;;;0.00;0.00;;;;;;;11.13;100.00;99426.00;5065493;28;20031;-79
2022/12/19 04:14:34;;;;;;;0.00;0.00;;;;;;;11.04;100.00;99394.91;5065726;28;20035;-78
2022/12/19 04:17:26;;;;;;;0.00;0.00;;;;;;;11.15;100.00;99410.88;5066971;28;20103;-77
2022/12/19 04:20:04;;;;;;;0.00;0.00;;;;;;;11.07;100.00;99411.56;5056526;28;20067;-76
2022/12/19 04:22:52;;;;;;;0.00;0.00;;;;;;;11.01;100.00;99377.19;5067376;28;20031;-77
2022/12/19 04:25:27;;;;;;;0.00;0.00;;;;;;;11.08;100.00;99365.84;5074024;28;20363;-77
2022/12/19 04:28:02;;;;;;;0.00;0.00;;;;;;;11.04;100.00;99373.00;5058898;28;20031;-77
2022/12/19 04:30:28;;;;;;;0.00;0.00;;;;;;;11.08;100.00;99385.00;5056152;28;20478;-75
2022/12/19 04:32:57;;;;;;;0.00;0.00;;;;;;;11.13;100.00;99406.84;5061470;28;20027;-78
2022/12/19 04:35:23;;;;;;;0.00;0.00;;;;;;;11.02;100.00;99372.50;5061205;28;20079;-78
2022/12/19 04:37:48;;;;;;;0.00;0.00;;;;;;;11.11;100.00;99407.13;5054760;28;20393;-78
2022/12/19 04:40:16;;;;;;;0.00;0.00;;;;;;;11.00;100.00;99405.63;5060707;28;20032;-77
2022/12/19 04:42:41;;;;;;;0.00;0.00;;;;;;;11.11;100.00;99436.41;5053591;28;20040;-79
2022/12/19 04:45:08;;;;;;;0.00;0.00;;;;;;;11.07;100.00;99405.25;5030023;28;20915;-78
2022/12/19 04:47:34;;;;;;;0.00;0.00;;;;;;;11.10;100.00;99423.84;5065154;28;20029;-73
2022/12/19 04:50:01;;;;;;;0.00;0.00;;;;;;;11.07;100.00;99430.72;5073240;28;20486;-76
2022/12/19 04:52:27;;;;;;;0.00;0.00;;;;;;;11.07;100.00;99443.56;5072312;28;20024;-76
2022/12/19 04:54:55;;;;;;;0.00;0.00;;;;;;;11.08;100.00;99426.03;5058026;28;20029;-77
2022/12/19 04:57:20;;;;;;;0.00;0.00;;;;;;;11.11;100.00;99411.78;5064611;28;20066;-77
2022/12/19 04:59:48;;;;;;;0.00;0.00;;;;;;;11.13;100.00;99409.56;5047785;28;20025;-77
2022/12/19 05:02:14;;;;;;;0.00;0.00;;;;;;;11.08;100.00;99406.88;5073012;28;20117;-77
2022/12/19 05:04:39;;;;;;;0.00;0.00;;;;;;;11.14;100.00;99416.66;5066912;28;20024;-77
2022/12/19 05:07:07;;;;;;;0.00;0.00;;;;;;;11.12;100.00;99419.69;5050046;28;20028;-77
2022/12/19 05:09:40;;;;;;;0.00;0.00;;;;;;;11.14;100.00;99413.91;5057918;28;20053;-78
2022/12/19 05:12:28;;;;;;;;;;;;;;;;;;;;;
2022/12/19 05:15:57;;;;;;;;;;;;;;;;;;;;;
2022/12/19 05:19:12;;;;;;;0.00;0.00;;;;;;;11.07;100.00;99406.09;4982594;28;20042;-78
2022/12/19 05:21:37;;;;;;;0.00;0.00;;;;;;;11.20;100.00;99403.72;5023276;28;20055;-77
2022/12/19 05:24:03;;;;;;;0.00;0.00;;;;;;;11.32;100.00;99440.50;5066534;28;20020;-77
2022/12/19 05:26:31;;;;;;;0.00;0.00;;;;;;;11.24;100.00;99415.72;5068630;28;20031;-77
2022/12/19 05:28:59;;;;;;;0.00;0.00;;;;;;;11.27;100.00;99429.63;5052038;28;20025;-76
2022/12/19 05:31:24;;;;;;;0.00;0.00;;;;;;;11.24;100.00;99411.03;5032212;28;20082;-76
2022/12/19 05:33:52;;;;;;;0.00;0.00;;;;;;;11.32;100.00;99423.25;5044283;28;20028;-76
2022/12/19 05:36:18;;;;;;;0.00;0.00;;;;;;;11.27;100.00;99426.91;5042998;28;20049;-75
2022/12/19 05:38:44;;;;;;;0.00;0.00;;;;;;;11.38;100.00;99433.03;5033789;28;20107;-77
2022/12/19 05:41:23;;;;;;;0.00;0.00;;;;;;;11.29;100.00;99429.34;5071301;28;20103;-76
2022/12/19 05:43:51;;;;;;;0.00;0.00;;;;;;;11.36;100.00;99435.25;5048600;28;20021;-77
2022/12/19 05:47:58;;;;;;;0.00;0.00;;;;;;;11.24;100.00;99400.09;5044790;28;20024;-77
2022/12/19 05:50:04;;;;;;;0.00;0.00;;;;;;;11.27;100.00;99398.69;5017962;28;20032;-76
2022/12/19 05:52:33;;;;;;;0.00;0.00;;;;;;;11.31;100.00;99400.53;5067691;28;20051;-76
2022/12/19 05:54:58;;;;;;;0.00;0.00;;;;;;;11.31;100.00;99411.47;5029964;28;20056;-77
2022/12/19 05:57:24;;;;;;;0.00;0.00;;;;;;;11.24;100.00;99377.41;5031931;28;20502;-77
2022/12/19 05:59:49;;;;;;;0.00;0.00;;;;;;;11.30;100.00;99381.69;5035136;28;20020;-77
2022/12/19 06:02:17;;;;;;;0.00;0.00;;;;;;;11.28;100.00;99412.06;5065981;28;20020;-75
2022/12/19 06:04:42;;;;;;;0.00;0.00;;;;;;;11.26;100.00;99397.88;5017094;28;20033;-75
2022/12/19 06:07:08;;;;;;;0.00;0.00;;;;;;;11.31;100.00;99392.31;5042769;28;20025;-75
2022/12/19 06:09:33;;;;;;;0.00;0.00;;;;;;;11.36;100.00;99394.19;5037063;28;20029;-76
2022/12/19 06:12:01;;;;;;;0.00;0.00;;;;;;;11.24;100.00;99383.66;5034009;28;20138;-75
2022/12/19 06:14:31;;;;;;;0.00;0.00;;;;;;;11.24;100.00;99386.41;5044304;28;20020;-75
2022/12/19 06:16:59;;;;;;;0.00;0.00;;;;;;;11.29;100.00;99386.34;5059490;28;20040;-74
2022/12/19 06:19:29;;;;;;;0.00;0.00;;;;;;;11.18;100.00;99368.44;5058306;28;20041;-74
2022/12/19 06:21:57;;;;;;;0.00;0.00;;;;;;;11.31;100.00;99378.66;5050851;28;20020;-75
2022/12/19 06:24:25;;;;;;;0.00;0.00;;;;;;;11.30;100.00;99396.19;5032660;28;20055;-76
2022/12/19 06:26:51;;;;;;;0.00;0.00;;;;;;;11.32;100.00;99388.50;5064581;28;20020;-76
2022/12/19 06:29:16;;;;;;;0.00;0.00;;;;;;;11.28;100.00;99412.06;5030142;28;20066;-76
2022/12/19 06:31:44;;;;;;;0.00;0.00;;;;;;;11.14;100.00;99368.22;5037800;28;20031;-74
2022/12/19 06:34:10;;;;;;;0.00;0.00;;;;;;;11.23;100.00;99387.53;5038382;28;20119;-75
2022/12/19 06:36:36;;;;;;;0.00;0.00;;;;;;;11.17;100.00;99375.03;5066639;28;20044;-78
2022/12/19 06:39:04;;;;;;;0.00;0.00;;;;;;;11.18;100.00;99368.44;5089942;28;20026;-76
2022/12/19 06:44:22;;;;;;;0.00;0.00;;;;;;;11.16;100.00;99362.47;5052321;28;20065;-77
2022/12/19 06:46:47;;;;;;;0.00;0.00;;;;;;;11.23;100.00;99387.53;5062921;28;20409;-77
2022/12/19 06:49:20;;;;;;;0.00;0.00;;;;;;;11.19;100.00;99394.69;5052757;28;20040;-76
2022/12/19 06:51:46;;;;;;;0.00;0.00;;;;;;;11.12;100.00;99381.38;5073461;28;20035;-77
2022/12/19 06:54:29;;;;;;;0.00;0.00;;;;;;;11.15;100.00;99364.38;5054487;28;20700;-76
2022/12/19 06:56:56;;;;;;;0.00;0.00;;;;;;;11.23;100.00;99375.75;5062403;28;20031;-76
2022/12/19 06:59:22;;;;;;;0.00;0.00;;;;;;;11.13;100.00;99368.53;5061265;28;20028;-77
2022/12/19 07:02:07;;;;;;;0.00;0.00;;;;;;;11.14;100.00;99364.66;5060054;28;20075;-76
2022/12/19 07:05:21;;;;;;;;;;;;;;;;;;;;;
2022/12/19 07:08:40;;;;;;;;;;;;;;;;;;;;;
2022/12/19 07:11:46;;;;;;;0.00;0.00;;;;;;;11.28;100.00;99390.19;5070496;28;20036;-77
2022/12/19 07:17:11;;;;;;;0.00;0.00;;;;;;;11.29;100.00;99410.97;5043338;28;20051;-78
2022/12/19 07:19:52;;;;;;;;;;;;;;;;;;;;;
2022/12/19 07:22:28;;;;;;;0.00;0.00;;;;;;;11.10;100.00;99394.56;5063422;28;20672;-76
2022/12/19 07:24:55;;;;;;;0.00;0.00;;;;;;;11.16;100.00;99387.88;5063361;28;20024;-78
2022/12/19 07:27:25;;;;;;;0.00;0.00;;;;;;;11.18;100.00;99404.00;5069748;28;20048;-80
2022/12/19 07:29:50;;;;;;;0.00;0.00;;;;;;;11.12;100.00;99370.44;5041194;28;20082;-77
2022/12/19 07:32:16;;;;;;;0.00;0.00;;;;;;;11.20;100.00;99426.44;5078867;28;20020;-78
2022/12/19 07:35:25;;;;;;;0.00;0.00;;;;;;;11.06;100.00;99362.59;5029966;28;20027;-78
2022/12/19 07:37:50;;;;;;;0.00;0.00;;;;;;;11.25;100.00;99445.50;5054926;28;20511;-79
2022/12/19 07:40:16;;;;;;;0.00;0.00;;;;;;;11.21;100.00;99384.25;5063050;28;20028;-77
2022/12/19 07:42:48;;;;;;;0.00;0.00;;;;;;;11.28;100.00;99395.66;5047223;28;20128;-78
2022/12/19 07:45:21;;;;;;;0.00;0.00;;;;;;;11.17;100.00;99388.72;5059268;28;20029;-76
2022/12/19 07:47:46;;;;;;;0.00;0.00;;;;;;;11.12;100.00;99391.53;5054037;28;20055;-78
2022/12/19 07:50:12;;;;;;;0.00;0.00;;;;;;;11.17;100.00;99394.19;5035034;28;20028;-78
2022/12/19 07:52:37;;;;;;;0.00;0.00;;;;;;;11.18;100.00;99390.34;5080192;28;20020;-76
2022/12/19 07:55:03;;;;;;;0.00;0.00;;;;;;;11.23;100.00;99425.84;5038771;28;20427;-78
2022/12/19 08:14:32;;;;;;;0.00;0.00;;;;;;;11.21;100.00;99439.00;5016619;28;20033;-76
2022/12/19 08:20:55;;;;;;;;;;;;;;;;;;;;;
2022/12/19 08:23:21;;;;;;;0.00;0.00;;;;;;;11.16;100.00;99403.50;5083042;28;20024;-77
2022/12/19 08:25:49;;;;;;;0.00;0.00;;;;;;;11.22;100.00;99412.47;5059332;28;21075;-77
2022/12/19 08:28:14;;;;;;;0.00;0.00;;;;;;;11.23;100.00;99425.84;5037209;28;20024;-77
2022/12/19 08:30:42;;;;;;;0.00;0.00;;;;;;;11.22;100.00;99410.53;5045097;28;20028;-76
2022/12/19 08:33:08;;;;;;;0.00;0.00;;;;;;;11.07;100.00;99399.78;5061834;28;20063;-77
2022/12/19 08:36:05;;;;;;;;;;;;;;;;;;;;;
2022/12/19 08:38:35;;;;;;;0.00;0.00;;;;;;;11.14;100.00;99428.44;5067960;28;20369;-77
2022/12/19 08:41:05;;;;;;;0.00;0.00;;;;;;;11.20;100.00;99431.91;5043988;28;20028;-77
2022/12/19 08:43:31;;;;;;;0.00;0.00;;;;;;;11.17;100.00;99414.16;5061987;28;20047;-77
2022/12/19 08:45:57;;;;;;;0.00;0.00;;;;;;;11.21;100.00;99454.59;5052824;28;20457;-76
2022/12/19 08:48:23;;;;;;;0.00;0.00;;;;;;;11.19;100.00;99449.44;5063646;28;20146;-75
2022/12/19 08:50:52;;;;;;;0.00;0.00;;;;;;;11.12;100.00;99413.41;5078761;28;20769;-76
2022/12/19 08:53:19;;;;;;;0.00;0.00;;;;;;;11.13;100.00;99420.50;5081515;28;20036;-76
2022/12/19 08:55:45;;;;;;;0.00;0.00;;;;;;;11.13;100.00;99475.25;5082456;28;20069;-77
2022/12/19 08:58:11;;;;;;;0.00;0.00;;;;;;;11.08;100.00;99395.94;5066637;28;20031;-75
2022/12/19 09:00:37;;;;;;;0.00;0.00;;;;;;;11.03;100.00;99404.25;5033645;28;20035;-76
2022/12/19 09:03:03;;;;;;;0.00;0.00;;;;;;;11.02;100.00;99402.59;5044784;28;20036;-76
2022/12/19 09:05:31;;;;;;;0.00;0.00;;;;;;;11.10;100.00;99471.16;5060815;28;20048;-77
2022/12/19 09:07:56;;;;;;;0.00;0.00;;;;;;;11.07;100.00;99408.81;5069972;28;20031;-77
2022/12/19 09:10:22;;;;;;;0.00;0.00;;;;;;;10.93;100.00;99395.03;5062816;28;20025;-75
2022/12/19 09:12:47;;;;;;;0.00;0.00;;;;;;;11.05;100.00;99440.31;5061967;28;20036;-76
2022/12/19 09:15:20;;;;;;;0.00;0.00;;;;;;;11.00;100.00;99420.13;5063369;28;20028;-77
2022/12/19 09:17:45;;;;;;;0.00;0.00;;;;;;;11.05;100.00;99443.03;5083319;28;20055;-75
2022/12/19 09:20:18;;;;;;;0.00;0.00;;;;;;;11.05;100.00;99418.44;5032145;28;20056;-76
2022/12/19 09:22:43;;;;;;;0.00;0.00;;;;;;;11.03;100.00;99431.59;5045362;28;20012;-77
2022/12/19 09:25:09;;;;;;;0.00;0.00;;;;;;;11.10;100.00;99393.75;5051726;28;20523;-78
2022/12/19 09:27:37;;;;;;;0.00;0.00;;;;;;;11.06;100.00;99403.66;5062461;28;20078;-78
2022/12/19 09:30:03;;;;;;;0.00;0.00;;;;;;;11.13;100.00;99404.09;5051997;28;20402;-79
2022/12/19 09:32:49;;;;;;;0.00;0.00;;;;;;;11.13;100.00;99395.88;5053544;28;20029;-78
2022/12/19 09:35:15;;;;;;;0.00;0.00;;;;;;;11.15;100.00;99401.88;5052864;28;20119;-79
2022/12/19 09:37:43;;;;;;;0.00;0.00;;;;;;;11.07;100.00;99394.31;5070449;28;20479;-79
2022/12/19 09:40:17;;;;;;;0.00;0.00;;;;;;;11.12;100.00;99413.41;5050894;28;20016;-77
2022/12/19 09:42:55;;;;;;;0.00;0.00;;;;;;;11.18;100.00;99401.28;5082329;28;20138;-78
2022/12/19 09:45:51;;;;;;;0.00;0.00;;;;;;;11.18;100.00;99424.00;5067392;28;20037;-76
2022/12/19 09:48:17;;;;;;;0.00;0.00;;;;;;;11.13;100.00;99406.84;5079768;28;21243;-77
2022/12/19 09:51:04;;;;;;;0.00;0.00;;;;;;;11.17;100.00;99427.03;5051440;28;20387;-77
2022/12/19 09:53:51;;;;;;;0.00;0.00;;;;;;;11.17;100.00;99418.81;5058985;28;20063;-80
2022/12/19 09:56:18;;;;;;;0.00;0.00;;;;;;;11.03;100.00;99398.78;5070252;28;20028;-78
2022/12/19 09:58:50;;;;;;;0.00;0.00;;;;;;;11.06;100.00;99420.06;5043614;28;20032;-77
2022/12/19 10:01:49;;;;;;;0.00;0.00;;;;;;;11.14;100.00;99422.13;5057336;28;20034;-76
2022/12/19 10:04:22;;;;;;;0.00;0.00;;;;;;;11.02;100.00;99430.75;5073532;28;20043;-75
2022/12/19 10:06:50;;;;;;;0.00;0.00;;;;;;;11.12;100.00;99462.66;5049690;28;20035;-76
2022/12/19 10:09:20;;;;;;;0.00;0.00;;;;;;;11.12;100.00;99457.19;5050285;28;20413;-76
2022/12/19 10:12:36;;;;;;;0.00;0.00;;;;;;;11.07;100.00;99438.09;5074552;28;20103;-76
2022/12/19 10:15:08;;;;;;;0.00;0.00;;;;;;;11.03;100.00;99432.41;5031275;28;20036;-76
2022/12/19 10:18:10;;;;;;;0.00;0.00;;;;;;;10.99;100.00;99404.00;5070133;28;20050;-75
2022/12/19 10:20:48;;;;;;;0.00;0.00;;;;;;;11.03;100.00;99420.66;5071735;28;20032;-76
2022/12/19 10:23:38;;;;;;;0.00;0.00;;;;;;;11.11;100.00;99456.38;5061526;28;20545;-77
2022/12/19 10:26:16;;;;;;;0.00;0.00;;;;;;;11.10;100.00;99418.38;5077747;28;20043;-77
2022/12/19 10:28:47;;;;;;;0.00;0.00;;;;;;;11.10;100.00;99421.09;5076247;28;20111;-78
2022/12/19 10:31:35;;;;;;;0.00;0.00;;;;;;;11.09;100.00;99403.84;5063764;28;20546;-76
2022/12/19 10:34:18;;;;;;;0.00;0.00;;;;;;;10.98;100.00;99419.59;5076178;28;20458;-76
2022/12/19 10:36:45;;;;;;;0.00;0.00;;;;;;;11.00;100.00;99411.09;5054598;28;20105;-77
2022/12/19 10:39:32;;;;;;;0.00;0.00;;;;;;;11.02;100.00;99435.44;5074384;28;20063;-77
2022/12/19 10:42:16;;;;;;;0.00;0.00;;;;;;;11.02;100.00;99408.06;5067242;28;20024;-77
2022/12/19 10:44:43;;;;;;;0.00;0.00;;;;;;;10.94;100.00;99404.88;5056659;28;20020;-76
2022/12/19 10:47:15;;;;;;;0.00;0.00;;;;;;;11.02;100.00;99397.13;5066429;28;20048;-78
2022/12/19 10:49:48;;;;;;;0.00;0.00;;;;;;;10.97;100.00;99390.63;5073585;28;20024;-78
2022/12/19 10:52:59;;;;;;;0.00;0.00;;;;;;;11.09;100.00;99419.47;5062072;28;20040;-77
2022/12/19 10:56:01;;;;;;;0.00;0.00;;;;;;;11.02;100.00;99370.56;5051975;28;20043;-78
2022/12/19 10:58:46;;;;;;;;;;;;;;;;;;;;;
2022/12/19 11:01:25;;;;;;;0.00;0.00;;;;;;;11.08;100.00;99404.16;5082759;28;20496;-76
2022/12/19 11:04:12;;;;;;;0.00;0.00;;;;;;;11.03;100.00;99379.63;5074880;28;20031;-75
2022/12/19 11:06:43;;;;;;;0.00;0.00;;;;;;;11.05;100.00;99407.47;5060927;28;20024;-74
2022/12/19 11:09:20;;;;;;;0.00;0.00;;;;;;;11.05;100.00;99369.19;5067396;28;20028;-75
2022/12/19 11:12:10;;;;;;;0.00;0.00;;;;;;;10.88;100.00;99348.63;5055129;28;20036;-77
2022/12/19 11:15:13;;;;;;;0.00;0.00;;;;;;;11.10;100.00;99377.34;5025010;28;20055;-74
2022/12/19 11:17:46;;;;;;;0.00;0.00;;;;;;;11.03;100.00;99374.94;5063543;28;20097;-76
2022/12/19 11:20:29;;;;;;;0.00;0.00;;;;;;;11.08;100.00;99382.25;5068390;28;20030;-75
2022/12/19 11:23:13;;;;;;;0.00;0.00;;;;;;;10.94;100.00;99357.56;5062559;28;20059;-74
2022/12/19 11:25:51;;;;;;;0.00;0.00;;;;;;;10.95;100.00;99387.38;5069693;28;20054;-75
2022/12/19 11:32:25;;;;;;;0.00;0.00;;;;;;;10.82;100.00;99386.16;5026321;28;20117;-78
2022/12/19 11:35:32;;;;;;;0.00;0.00;;;;;;;10.98;100.00;99375.84;4994408;28;20042;-77
2022/12/19 11:38:04;;;;;;;0.00;0.00;;;;;;;11.02;100.00;99380.72;5001418;28;20056;-74
2022/12/19 11:44:02;;;;;;;;;;;;;;;;;;;;;
2022/12/19 11:46:33;;;;;;;0.00;0.00;;;;;;;10.96;100.00;99375.31;5056954;28;20023;-75
2022/12/19 11:49:44;;;;;;;;;;;;;;;;;;;;;
2022/12/19 11:52:56;;;;;;;;;;;;;;;;;;;;;
2022/12/19 11:55:37;;;;;;;0.00;0.00;;;;;;;10.97;100.00;99368.72;5005641;28;20029;-75
2022/12/19 11:58:02;;;;;;;0.00;0.00;;;;;;;10.92;100.00;99355.13;5007064;28;20033;-74
2022/12/19 12:00:49;;;;;;;0.00;0.00;;;;;;;10.95;100.00;99345.50;5045429;28;20041;-73
2022/12/19 12:03:42;;;;;;;0.00;0.00;;;;;;;11.06;100.00;99351.66;5059316;28;20041;-74
2022/12/19 12:10:14;;;;;;;;;;;;;;;;;;;;;
2022/12/19 12:13:30;;;;;;;0.00;0.00;;;;;;;11.18;100.00;99347.38;5016579;28;20028;-75
2022/12/19 12:15:56;;;;;;;0.00;0.00;;;;;;;11.21;100.00;99365.09;5013454;28;20371;-74
2022/12/19 12:19:51;;;;;;;;;;;;;;;;;;;;;
2022/12/19 12:22:20;;;;;;;0.00;0.00;;;;;;;11.29;100.00;99342.56;5054849;28;20481;-75
2022/12/19 12:25:39;;;;;;;0.00;0.00;;;;;;;11.21;100.00;99324.06;5061617;28;20028;-77
2022/12/19 12:28:46;;;;;;;;;;;;;;;;;;;;;
2022/12/19 12:31:30;;;;;;;0.03;0.03;;;;;;;11.33;100.00;99326.34;5016156;28;20022;-74
2022/12/19 12:34:17;;;;;;;;;;;;;;;;;;;;;
2022/12/19 12:37:19;;;;;;;0.00;0.00;;;;;;;11.25;100.00;99308.69;5017476;28;20204;-73
2022/12/19 12:39:54;;;;;;;0.00;0.00;;;;;;;11.32;100.00;99330.22;5004614;28;20942;-75
2022/12/19 12:42:31;;;;;;;0.00;0.00;;;;;;;11.32;100.00;99336.50;5002271;28;20525;-74
2022/12/19 12:45:04;;;;;;;0.00;0.00;;;;;;;11.29;100.00;99309.72;5022809;28;20055;-73
2022/12/19 12:47:35;;;;;;;0.00;0.00;;;;;;;11.32;100.00;99314.59;5067417;28;20031;-74
2022/12/19 12:50:22;;;;;;;0.00;0.00;;;;;;;11.34;100.00;99339.72;5061520;28;20257;-74
2022/12/19 12:53:21;;;;;;;;;;;;;;;;;;;;;
2022/12/19 12:56:29;;;;;;;;;;;;;;;;;;;;;
2022/12/19 12:59:33;;;;;;;;;;;;;;;;;;;;;
2022/12/19 13:02:29;;;;;;;0.00;0.00;;;;;;;11.27;100.00;99301.00;5078123;28;20028;-75
2022/12/19 13:04:58;;;;;;;;;;;;;;;11.41;100.00;99322.13;5064639;28;20116;-73
2022/12/19 13:07:52;;;;;;;0.00;0.00;;;;;;;11.40;100.00;99315.03;5064022;28;19957;-74
2022/12/19 13:10:30;;;;;;;0.00;0.00;;;;;;;11.32;100.00;99303.66;5062929;28;20020;-74